Time;durP1;ratioP1;P1;durP2;ratioP2;P2;SDS_P1;SDS_P2;PMS_P1;PMS_P2;Temp;Humidity;BMP_temperature;BMP_pressure;BME280_temperature;BME280_humidity;BME280_pressure;Samples;Min_cycle;Max_cycle;Signal;HPM_P1;HPM_P2
2021/01/03 00:01:28;;;;;;;54.97;27.47;;;;;;;;;;5090356;28;20988;-54
2021/01/03 00:03:54;;;;;;;53.60;26.07;;;;;;;;;;5094312;28;20489;-54
2021/01/03 00:06:20;;;;;;;57.80;29.10;;;;;;;;;;5094488;28;20417;-54
2021/01/03 00:08:48;;;;;;;57.80;27.67;;;;;;;;;;5094803;28;20409;-55
2021/01/03 00:11:14;;;;;;;54.97;29.88;;;;;;;;;;5094316;28;20401;-54
2021/01/03 00:13:40;;;;;;;54.90;27.93;;;;;;;;;;5093202;28;20276;-54
2021/01/03 00:16:06;;;;;;;51.50;25.83;;;;;;;;;;5094592;28;20416;-55
2021/01/03 00:18:32;;;;;;;53.13;27.37;;;;;;;;;;5094602;28;20406;-54
2021/01/03 00:20:58;;;;;;;52.85;27.65;;;;;;;;;;5094579;28;20452;-54
2021/01/03 00:23:24;;;;;;;55.40;29.02;;;;;;;;;;5094206;28;20165;-55
2021/01/03 00:25:50;;;;;;;58.67;27.57;;;;;;;;;;5094503;28;20195;-55
2021/01/03 00:28:16;;;;;;;60.90;28.38;;;;;;;;;;5094326;28;20397;-54
2021/01/03 00:30:42;;;;;;;55.42;27.50;;;;;;;;;;5094435;28;20175;-54
2021/01/03 00:33:08;;;;;;;61.33;30.60;;;;;;;;;;5094024;28;20263;-54
2021/01/03 00:35:35;;;;;;;54.87;28.80;;;;;;;;;;5094150;28;20206;-54
2021/01/03 00:38:05;;;;;;;61.00;27.70;;;;;;;;;;5094077;28;20407;-54
2021/01/03 00:40:32;;;;;;;57.10;28.58;;;;;;;;;;5094132;28;20731;-54
2021/01/03 00:42:58;;;;;;;49.33;27.45;;;;;;;;;;5093922;28;20208;-54
2021/01/03 00:45:24;;;;;;;63.92;28.17;;;;;;;;;;5092139;28;20791;-55
2021/01/03 00:47:50;;;;;;;61.28;29.73;;;;;;;;;;5093920;28;20168;-54
2021/01/03 00:50:17;;;;;;;54.65;29.35;;;;;;;;;;5093775;28;20189;-55
2021/01/03 00:52:43;;;;;;;55.47;29.13;;;;;;;;;;5093628;28;20538;-54
2021/01/03 00:55:09;;;;;;;58.13;29.37;;;;;;;;;;5093535;28;20194;-54
2021/01/03 00:57:36;;;;;;;55.67;28.25;;;;;;;;;;5093785;28;20425;-54
2021/01/03 01:00:02;;;;;;;58.38;29.27;;;;;;;;;;5093536;28;20227;-55
2021/01/03 01:02:27;;;;;;;55.58;27.45;;;;;;;;;;5093390;28;20221;-54
2021/01/03 01:04:53;;;;;;;51.93;27.50;;;;;;;;;;5093451;28;20191;-54
2021/01/03 01:07:19;;;;;;;54.33;28.05;;;;;;;;;;5093608;28;20437;-54
2021/01/03 01:09:45;;;;;;;50.73;28.50;;;;;;;;;;5093561;28;20162;-54
2021/01/03 01:12:11;;;;;;;55.67;27.67;;;;;;;;;;5093117;28;20434;-54
2021/01/03 01:14:37;;;;;;;58.05;28.20;;;;;;;;;;5091897;28;20450;-54
2021/01/03 01:17:06;;;;;;;49.20;25.47;;;;;;;;;;5093191;28;20747;-54
2021/01/03 01:19:32;;;;;;;51.80;28.90;;;;;;;;;;5093295;28;20406;-54
2021/01/03 01:21:58;;;;;;;55.40;27.10;;;;;;;;;;5092894;28;20682;-54
2021/01/03 01:24:24;;;;;;;52.93;27.30;;;;;;;;;;5093189;28;21099;-54
2021/01/03 01:26:50;;;;;;;63.23;28.50;;;;;;;;;;5092970;28;20393;-55
2021/01/03 01:29:15;;;;;;;50.73;25.60;;;;;;;;;;5093079;28;20391;-54
2021/01/03 01:31:41;;;;;;;53.07;26.70;;;;;;;;;;5092679;28;20466;-54
2021/01/03 01:34:07;;;;;;;56.07;27.93;;;;;;;;;;5092950;28;20397;-54
2021/01/03 01:36:33;;;;;;;58.23;26.83;;;;;;;;;;5092898;28;20825;-55
2021/01/03 01:38:59;;;;;;;56.07;28.80;;;;;;;;;;5092903;28;20444;-54
2021/01/03 01:41:25;;;;;;;57.00;27.37;;;;;;;;;;5092589;28;20455;-55
2021/01/03 01:43:51;;;;;;;53.17;26.00;;;;;;;;;;5091173;28;20418;-54
2021/01/03 01:46:20;;;;;;;61.67;29.90;;;;;;;;;;5092644;28;20473;-54
2021/01/03 01:48:46;;;;;;;54.33;29.15;;;;;;;;;;5092712;28;20427;-54
2021/01/03 01:51:22;;;;;;;58.63;28.40;;;;;;;;;;5092357;28;20598;-54
2021/01/03 01:53:57;;;;;;;52.97;26.88;;;;;;;;;;5092573;28;20222;-54
2021/01/03 01:56:26;;;;;;;59.20;28.35;;;;;;;;;;5092621;28;20213;-54
2021/01/03 01:59:01;;;;;;;56.88;28.48;;;;;;;;;;5092313;28;20217;-54
2021/01/03 02:01:39;;;;;;;51.05;28.48;;;;;;;;;;5092074;28;20262;-54
2021/01/03 02:04:19;;;;;;;61.97;29.40;;;;;;;;;;5091673;28;20171;-54
2021/01/03 02:06:47;;;;;;;69.40;28.80;;;;;;;;;;5092249;28;20198;-54
2021/01/03 02:09:14;;;;;;;57.33;27.65;;;;;;;;;;5092145;28;20167;-54
2021/01/03 02:11:40;;;;;;;53.22;26.20;;;;;;;;;;5092134;28;20638;-54
2021/01/03 02:14:07;;;;;;;61.88;27.38;;;;;;;;;;5090960;28;20771;-54
2021/01/03 02:16:34;;;;;;;61.00;27.85;;;;;;;;;;5092321;28;20204;-54
2021/01/03 02:19:00;;;;;;;49.67;26.75;;;;;;;;;;5092148;28;20166;-54
2021/01/03 02:21:38;;;;;;;51.33;25.65;;;;;;;;;;5093056;28;20183;-54
2021/01/03 02:24:21;;;;;;;53.13;25.92;;;;;;;;;;5094398;28;20163;-54
2021/01/03 02:26:50;;;;;;;58.83;26.52;;;;;;;;;;5091632;28;20167;-54
2021/01/03 02:29:17;;;;;;;47.53;25.65;;;;;;;;;;5092118;28;20164;-54
2021/01/03 02:31:45;;;;;;;52.35;24.80;;;;;;;;;;5091878;28;20206;-54
2021/01/03 02:34:14;;;;;;;50.22;26.55;;;;;;;;;;5092017;28;20176;-54
2021/01/03 02:36:42;;;;;;;53.45;26.90;;;;;;;;;;5091983;28;20173;-54
2021/01/03 02:39:20;;;;;;;49.17;25.30;;;;;;;;;;5092394;28;20187;-54
2021/01/03 02:41:46;;;;;;;50.25;26.10;;;;;;;;;;5091816;28;20192;-55
2021/01/03 02:44:12;;;;;;;55.05;26.90;;;;;;;;;;5090441;28;20779;-54
2021/01/03 02:46:38;;;;;;;50.00;23.37;;;;;;;;;;5092218;28;20272;-56
2021/01/03 02:49:05;;;;;;;44.40;23.50;;;;;;;;;;5092145;28;20430;-56
2021/01/03 02:51:33;;;;;;;48.42;24.83;;;;;;;;;;5091318;28;20183;-55
2021/01/03 02:53:59;;;;;;;42.83;24.30;;;;;;;;;;5091639;28;20204;-56
2021/01/03 02:56:25;;;;;;;45.25;23.33;;;;;;;;;;5091456;28;20221;-56
2021/01/03 02:58:51;;;;;;;41.20;22.57;;;;;;;;;;5091531;28;20655;-56
2021/01/03 03:01:16;;;;;;;55.17;25.07;;;;;;;;;;5091055;28;20843;-56
2021/01/03 03:03:42;;;;;;;50.43;24.13;;;;;;;;;;5091314;28;20400;-56
2021/01/03 03:06:08;;;;;;;44.57;24.57;;;;;;;;;;5091333;28;20470;-56
2021/01/03 03:08:34;;;;;;;40.77;21.77;;;;;;;;;;5091263;28;20400;-56
2021/01/03 03:11:00;;;;;;;48.20;24.60;;;;;;;;;;5091278;28;20478;-56
2021/01/03 03:13:26;;;;;;;44.77;23.20;;;;;;;;;;5089765;28;20528;-54
2021/01/03 03:15:52;;;;;;;49.23;24.13;;;;;;;;;;5091121;28;20429;-56
2021/01/03 03:18:18;;;;;;;46.30;23.80;;;;;;;;;;5091063;28;20444;-56
2021/01/03 03:20:46;;;;;;;53.58;23.52;;;;;;;;;;5091271;28;20486;-56
2021/01/03 03:23:12;;;;;;;45.33;23.33;;;;;;;;;;5090621;28;20208;-55
2021/01/03 03:25:38;;;;;;;42.55;23.05;;;;;;;;;;5091055;28;20181;-56
2021/01/03 03:28:04;;;;;;;45.40;22.87;;;;;;;;;;5090975;28;20168;-56
2021/01/03 03:30:30;;;;;;;41.85;21.65;;;;;;;;;;5090940;28;20418;-56
2021/01/03 03:32:58;;;;;;;40.87;23.37;;;;;;;;;;5090743;28;20161;-56
2021/01/03 03:35:28;;;;;;;41.05;21.58;;;;;;;;;;5090763;28;20514;-56
2021/01/03 03:37:54;;;;;;;39.20;21.52;;;;;;;;;;5090915;28;20171;-56
2021/01/03 03:40:21;;;;;;;47.25;22.80;;;;;;;;;;5090708;28;20199;-56
2021/01/03 03:42:46;;;;;;;42.90;22.55;;;;;;;;;;5090690;28;20183;-55
2021/01/03 03:45:13;;;;;;;39.00;20.60;;;;;;;;;;5087827;28;20224;-55
2021/01/03 03:47:39;;;;;;;41.33;21.73;;;;;;;;;;5090841;28;20407;-56
2021/01/03 03:50:07;;;;;;;34.58;19.88;;;;;;;;;;5090696;28;20250;-56
2021/01/03 03:52:33;;;;;;;36.17;19.90;;;;;;;;;;5090574;28;20165;-55
2021/01/03 03:54:59;;;;;;;37.90;18.60;;;;;;;;;;5090667;28;20750;-56
2021/01/03 03:57:24;;;;;;;32.10;18.80;;;;;;;;;;5090729;28;20424;-56
2021/01/03 03:59:50;;;;;;;33.77;19.17;;;;;;;;;;5090523;28;20449;-56
2021/01/03 04:02:16;;;;;;;33.53;18.40;;;;;;;;;;5090435;28;20849;-56
2021/01/03 04:04:44;;;;;;;34.93;18.13;;;;;;;;;;5090637;28;20473;-56
2021/01/03 04:07:10;;;;;;;34.10;19.60;;;;;;;;;;5090603;28;20404;-56
2021/01/03 04:09:36;;;;;;;40.40;20.80;;;;;;;;;;5090681;28;20663;-55
2021/01/03 04:12:02;;;;;;;31.20;18.10;;;;;;;;;;5088842;28;20413;-55
2021/01/03 04:14:28;;;;;;;31.58;17.33;;;;;;;;;;5089476;28;20514;-56
2021/01/03 04:16:59;;;;;;;37.57;20.20;;;;;;;;;;5090531;28;20171;-55
2021/01/03 04:19:26;;;;;;;38.60;19.00;;;;;;;;;;5090656;28;20766;-55
2021/01/03 04:21:52;;;;;;;35.38;18.80;;;;;;;;;;5090152;28;20210;-55
2021/01/03 04:24:18;;;;;;;31.10;17.33;;;;;;;;;;5090385;28;20167;-55
2021/01/03 04:26:49;;;;;;;28.55;17.63;;;;;;;;;;5090326;28;20400;-56
2021/01/03 04:29:15;;;;;;;33.20;18.27;;;;;;;;;;5090834;28;20324;-56
2021/01/03 04:31:40;;;;;;;31.17;16.70;;;;;;;;;;5090040;28;20621;-56
2021/01/03 04:34:06;;;;;;;32.50;17.50;;;;;;;;;;5090339;28;20249;-56
2021/01/03 04:36:33;;;;;;;34.90;18.30;;;;;;;;;;5090450;28;20396;-56
2021/01/03 04:38:59;;;;;;;38.95;19.65;;;;;;;;;;5090397;28;20398;-56
2021/01/03 04:41:27;;;;;;;34.78;18.13;;;;;;;;;;5090103;28;20630;-56
2021/01/03 04:43:57;;;;;;;29.00;17.00;;;;;;;;;;5089524;28;20175;-56
2021/01/03 04:46:25;;;;;;;32.05;16.67;;;;;;;;;;5090410;28;20194;-56
2021/01/03 04:48:59;;;;;;;32.25;18.33;;;;;;;;;;5091773;28;20166;-56
2021/01/03 04:51:30;;;;;;;31.08;18.45;;;;;;;;;;5093793;28;20195;-56
2021/01/03 04:54:05;;;;;;;30.70;17.48;;;;;;;;;;5093995;28;20168;-55
2021/01/03 04:56:51;;;;;;;32.53;18.00;;;;;;;;;;5094167;28;20171;-56
2021/01/03 04:59:36;;;;;;;37.63;18.38;;;;;;;;;;5093862;28;20190;-56
2021/01/03 05:02:20;;;;;;;28.20;17.23;;;;;;;;;;5093687;28;20198;-56
2021/01/03 05:05:05;;;;;;;32.85;17.50;;;;;;;;;;5093756;28;20593;-54
2021/01/03 05:07:35;;;;;;;36.70;17.27;;;;;;;;;;5093952;28;20232;-56
2021/01/03 05:10:11;;;;;;;30.10;16.88;;;;;;;;;;5094171;28;20167;-56
2021/01/03 05:12:42;;;;;;;29.38;16.95;;;;;;;;;;5094446;28;20174;-56
2021/01/03 05:15:13;;;;;;;31.45;15.80;;;;;;;;;;5093756;28;20200;-56
2021/01/03 05:17:39;;;;;;;26.92;16.17;;;;;;;;;;5094628;28;20517;-56
2021/01/03 05:20:06;;;;;;;26.87;15.50;;;;;;;;;;5093323;28;20164;-55
2021/01/03 05:22:35;;;;;;;26.38;15.93;;;;;;;;;;5093354;28;20411;-56
2021/01/03 05:25:01;;;;;;;21.38;14.95;;;;;;;;;;5093180;28;20197;-56
2021/01/03 05:27:28;;;;;;;24.17;14.30;;;;;;;;;;5093146;28;20914;-56
2021/01/03 05:30:10;;;;;;;25.13;15.30;;;;;;;;;;5093290;28;20161;-55
2021/01/03 05:32:36;;;;;;;22.13;14.07;;;;;;;;;;5093064;28;20189;-56
2021/01/03 05:35:03;;;;;;;30.40;16.17;;;;;;;;;;5093062;28;20708;-56
2021/01/03 05:37:32;;;;;;;26.35;14.52;;;;;;;;;;5092925;28;20223;-56
2021/01/03 05:39:57;;;;;;;21.10;13.15;;;;;;;;;;5093052;28;20176;-55
2021/01/03 05:42:31;;;;;;;29.00;14.43;;;;;;;;;;5092601;28;20210;-55
2021/01/03 05:44:57;;;;;;;21.70;12.40;;;;;;;;;;5091141;28;20462;-55
2021/01/03 05:47:27;;;;;;;21.50;12.75;;;;;;;;;;5092674;28;20158;-56
2021/01/03 05:50:14;;;;;;;18.88;11.90;;;;;;;;;;5092914;28;20625;-56
2021/01/03 05:52:45;;;;;;;21.70;12.70;;;;;;;;;;5092440;28;20169;-55
2021/01/03 05:55:11;;;;;;;21.73;13.50;;;;;;;;;;5092812;28;20196;-56
2021/01/03 05:57:37;;;;;;;22.15;13.05;;;;;;;;;;5092576;28;20535;-56
2021/01/03 06:00:23;;;;;;;20.57;12.30;;;;;;;;;;5091593;28;20170;-56
2021/01/03 06:02:49;;;;;;;15.02;10.82;;;;;;;;;;5092097;28;20409;-56
2021/01/03 06:05:18;;;;;;;18.10;11.38;;;;;;;;;;5092537;28;20190;-55
2021/01/03 06:08:02;;;;;;;19.60;10.63;;;;;;;;;;5092433;28;20175;-55
2021/01/03 06:10:29;;;;;;;21.63;11.02;;;;;;;;;;5091173;28;20179;-55
2021/01/03 06:12:58;;;;;;;16.63;10.82;;;;;;;;;;5091960;28;20168;-55
2021/01/03 06:15:26;;;;;;;17.70;10.18;;;;;;;;;;5091777;28;20314;-55
2021/01/03 06:17:55;;;;;;;16.08;10.15;;;;;;;;;;5092156;28;20177;-55
2021/01/03 06:20:24;;;;;;;15.07;9.80;;;;;;;;;;5092162;28;20735;-55
2021/01/03 06:22:55;;;;;;;15.68;10.40;;;;;;;;;;5091892;28;20166;-56
2021/01/03 06:25:27;;;;;;;17.50;9.95;;;;;;;;;;5092021;28;20280;-56
2021/01/03 06:27:59;;;;;;;12.65;8.93;;;;;;;;;;5092288;28;20305;-55
2021/01/03 06:30:25;;;;;;;15.00;9.90;;;;;;;;;;5091865;28;20166;-55
2021/01/03 06:32:54;;;;;;;13.63;9.05;;;;;;;;;;5091713;28;20181;-55
2021/01/03 06:35:33;;;;;;;12.00;8.75;;;;;;;;;;5091705;28;20555;-56
2021/01/03 06:38:13;;;;;;;15.07;9.13;;;;;;;;;;5091799;28;20250;-55
2021/01/03 06:40:41;;;;;;;12.48;9.20;;;;;;;;;;5091525;28;20183;-56
2021/01/03 06:43:13;;;;;;;13.57;9.32;;;;;;;;;;5091498;28;20175;-54
2021/01/03 06:45:39;;;;;;;15.20;9.05;;;;;;;;;;5089807;28;20257;-56
2021/01/03 06:48:11;;;;;;;12.83;9.33;;;;;;;;;;5091669;28;20183;-56
2021/01/03 06:50:56;;;;;;;13.68;8.10;;;;;;;;;;5091455;28;20931;-56
2021/01/03 06:53:42;;;;;;;12.80;8.65;;;;;;;;;;5091400;28;20638;-56
2021/01/03 06:56:31;;;;;;;17.98;8.88;;;;;;;;;;5091403;28;20191;-56
2021/01/03 06:59:12;;;;;;;11.60;8.40;;;;;;;;;;5091457;28;20287;-54
2021/01/03 07:01:39;;;;;;;12.85;8.70;;;;;;;;;;5091012;28;20198;-55
2021/01/03 07:04:11;;;;;;;13.15;8.65;;;;;;;;;;5091309;28;20167;-55
2021/01/03 07:06:38;;;;;;;13.32;8.77;;;;;;;;;;5091219;28;20241;-56
2021/01/03 07:09:08;;;;;;;14.70;8.70;;;;;;;;;;5091329;28;20195;-55
2021/01/03 07:11:40;;;;;;;14.57;8.45;;;;;;;;;;5090604;28;20240;-55
2021/01/03 07:14:06;;;;;;;10.65;7.97;;;;;;;;;;5090262;28;20180;-55
2021/01/03 07:16:45;;;;;;;13.50;8.48;;;;;;;;;;5070866;28;20174;-56
2021/01/03 07:19:13;;;;;;;11.50;8.13;;;;;;;;;;5071058;28;20165;-56
2021/01/03 07:21:43;;;;;;;14.10;8.80;;;;;;;;;;5070519;28;20187;-56
2021/01/03 07:24:23;;;;;;;11.05;7.40;;;;;;;;;;5070896;28;20180;-56
2021/01/03 07:27:08;;;;;;;9.80;7.60;;;;;;;;;;5071010;28;20169;-56
2021/01/03 07:29:33;;;;;;;10.52;7.68;;;;;;;;;;5071016;28;20723;-56
2021/01/03 07:32:02;;;;;;;12.53;7.87;;;;;;;;;;5070609;28;20210;-56
2021/01/03 07:34:30;;;;;;;11.32;7.32;;;;;;;;;;5070582;28;20429;-56
2021/01/03 07:37:11;;;;;;;11.70;8.48;;;;;;;;;;5070911;28;20225;-53
2021/01/03 07:39:54;;;;;;;10.68;7.65;;;;;;;;;;5070930;28;20175;-56
2021/01/03 07:42:23;;;;;;;9.23;7.28;;;;;;;;;;5070900;28;20198;-54
2021/01/03 07:44:49;;;;;;;11.40;8.05;;;;;;;;;;5072661;28;20202;-54
2021/01/03 07:47:34;;;;;;;11.90;8.00;;;;;;;;;;5091182;28;20686;-56
2021/01/03 07:50:21;;;;;;;12.93;7.85;;;;;;;;;;5091104;28;20207;-56
2021/01/03 07:52:49;;;;;;;14.20;8.65;;;;;;;;;;5080209;28;20174;-54
2021/01/03 07:55:25;;;;;;;11.98;7.90;;;;;;;;;;5090768;28;20296;-55
2021/01/03 07:58:10;;;;;;;12.00;9.30;;;;;;;;;;5091035;28;20173;-56
2021/01/03 08:00:38;;;;;;;10.60;8.07;;;;;;;;;;5089965;28;20567;-56
2021/01/03 08:03:08;;;;;;;10.90;8.35;;;;;;;;;;5089921;28;20240;-56
2021/01/03 08:05:35;;;;;;;11.32;6.90;;;;;;;;;;5089979;28;20186;-56
2021/01/03 08:08:03;;;;;;;9.20;7.75;;;;;;;;;;5091650;28;20170;-54
2021/01/03 08:10:30;;;;;;;8.90;7.30;;;;;;;;;;5092409;28;20176;-55
2021/01/03 08:13:11;;;;;;;10.93;8.35;;;;;;;;;;5089997;28;20202;-55
2021/01/03 08:15:37;;;;;;;9.20;7.53;;;;;;;;;;5088722;28;20561;-56
2021/01/03 08:18:05;;;;;;;9.82;7.25;;;;;;;;;;5089865;28;20180;-54
2021/01/03 08:20:31;;;;;;;11.82;7.70;;;;;;;;;;5085905;28;20211;-53
2021/01/03 08:23:16;;;;;;;11.13;7.40;;;;;;;;;;5079194;28;20182;-54
2021/01/03 08:25:42;;;;;;;9.85;7.70;;;;;;;;;;5073928;28;20214;-54
2021/01/03 08:28:22;;;;;;;12.30;7.70;;;;;;;;;;5074274;28;20179;-54
2021/01/03 08:30:50;;;;;;;10.93;8.27;;;;;;;;;;5073719;28;20889;-54
2021/01/03 08:33:19;;;;;;;15.68;7.90;;;;;;;;;;5073879;28;20547;-54
2021/01/03 08:35:45;;;;;;;7.63;6.78;;;;;;;;;;5074203;28;20191;-53
2021/01/03 08:38:11;;;;;;;10.03;8.07;;;;;;;;;;5072980;28;20163;-53
2021/01/03 08:40:43;;;;;;;8.80;7.93;;;;;;;;;;5071972;28;20506;-53
2021/01/03 08:43:08;;;;;;;9.20;7.65;;;;;;;;;;5072592;28;20406;-54
2021/01/03 08:45:41;;;;;;;7.70;6.13;;;;;;;;;;5083862;28;20205;-54
2021/01/03 08:48:10;;;;;;;8.00;6.05;;;;;;;;;;5091934;22;20498;-49
2021/01/03 08:50:37;;;;;;;7.00;6.30;;;;;;;;;;5072269;28;20229;-49
2021/01/03 08:53:05;;;;;;;6.97;6.28;;;;;;;;;;5072374;28;20187;-50
2021/01/03 08:55:33;;;;;;;7.05;6.38;;;;;;;;;;5073706;28;20180;-48
2021/01/03 08:58:00;;;;;;;7.00;6.25;;;;;;;;;;5073291;28;20278;-48
2021/01/03 09:00:36;;;;;;;8.65;6.53;;;;;;;;;;5073461;28;20218;-50
2021/01/03 09:03:02;;;;;;;8.02;6.55;;;;;;;;;;5073100;28;20627;-49
2021/01/03 09:05:31;;;;;;;6.15;5.65;;;;;;;;;;5073488;28;20164;-50
2021/01/03 09:07:58;;;;;;;7.32;6.10;;;;;;;;;;5073211;28;20183;-49
2021/01/03 09:10:37;;;;;;;6.93;6.22;;;;;;;;;;5073323;28;20188;-48
2021/01/03 09:13:05;;;;;;;7.15;5.68;;;;;;;;;;5073155;28;20178;-48
2021/01/03 09:15:33;;;;;;;6.65;5.95;;;;;;;;;;5069109;28;20574;-48
2021/01/03 09:18:07;;;;;;;7.68;5.50;;;;;;;;;;5073328;28;20195;-50
2021/01/03 09:20:38;;;;;;;6.85;5.38;;;;;;;;;;5072934;28;20195;-48
2021/01/03 09:23:06;;;;;;;5.70;5.15;;;;;;;;;;5071797;28;20177;-51
2021/01/03 09:25:34;;;;;;;9.00;6.75;;;;;;;;;;5072960;28;20248;-48
2021/01/03 09:28:08;;;;;;;7.20;5.80;;;;;;;;;;5072955;28;20196;-48
2021/01/03 09:30:35;;;;;;;6.40;5.80;;;;;;;;;;5072926;28;20216;-49
2021/01/03 09:33:04;;;;;;;7.82;5.38;;;;;;;;;;5072925;28;20184;-49
2021/01/03 09:35:42;;;;;;;6.70;5.65;;;;;;;;;;5072686;28;20175;-49
2021/01/03 09:38:14;;;;;;;8.32;5.82;;;;;;;;;;5072997;28;20198;-48
2021/01/03 09:40:49;;;;;;;7.55;5.85;;;;;;;;;;5072617;28;20568;-48
2021/01/03 09:43:15;;;;;;;7.68;5.70;;;;;;;;;;5072546;28;20172;-51
2021/01/03 09:45:52;;;;;;;9.47;7.27;;;;;;;;;;5068853;28;20184;-48
2021/01/03 09:48:25;;;;;;;8.50;6.63;;;;;;;;;;5071483;28;20464;-49
2021/01/03 09:50:51;;;;;;;7.03;6.10;;;;;;;;;;5072462;28;20176;-48
2021/01/03 09:53:20;;;;;;;8.90;6.15;;;;;;;;;;5072273;28;20198;-49
2021/01/03 09:55:59;;;;;;;6.90;5.40;;;;;;;;;;5072510;28;20220;-50
2021/01/03 09:58:34;;;;;;;6.90;6.15;;;;;;;;;;5072301;28;20287;-49
2021/01/03 10:01:00;;;;;;;7.03;5.28;;;;;;;;;;5072338;28;20247;-49
2021/01/03 10:03:35;;;;;;;9.73;6.00;;;;;;;;;;5071961;28;20222;-48
2021/01/03 10:06:13;;;;;;;7.47;5.53;;;;;;;;;;5072354;28;20164;-49
2021/01/03 10:08:39;;;;;;;8.23;5.90;;;;;;;;;;5072190;28;20175;-49
2021/01/03 10:11:05;;;;;;;6.50;5.17;;;;;;;;;;5072105;28;20173;-53
2021/01/03 10:13:31;;;;;;;7.78;6.38;;;;;;;;;;5071905;28;20429;-50
2021/01/03 10:15:58;;;;;;;6.22;5.63;;;;;;;;;;5068314;28;20169;-49
2021/01/03 10:18:33;;;;;;;5.90;5.30;;;;;;;;;;5031971;28;20202;-49
2021/01/03 10:20:59;;;;;;;7.85;6.10;;;;;;;;;;5032126;28;20574;-52
2021/01/03 10:23:38;;;;;;;7.93;6.10;;;;;;;;;;5031690;28;20633;-48
2021/01/03 10:26:06;;;;;;;8.43;5.03;;;;;;;;;;5032157;28;20560;-49
2021/01/03 10:28:32;;;;;;;5.22;4.72;;;;;;;;;;5031656;28;20181;-50
2021/01/03 10:30:58;;;;;;;7.25;6.03;;;;;;;;;;5038464;28;20261;-50
2021/01/03 10:33:24;;;;;;;9.73;5.80;;;;;;;;;;5051053;28;20653;-50
2021/01/03 10:35:50;;;;;;;6.23;5.63;;;;;;;;;;5051678;28;20183;-48
2021/01/03 10:38:16;;;;;;;7.23;5.70;;;;;;;;;;5051581;28;20428;-48
2021/01/03 10:40:42;;;;;;;6.40;5.70;;;;;;;;;;5051388;28;20458;-48
2021/01/03 10:43:08;;;;;;;6.23;5.60;;;;;;;;;;5051213;28;20544;-48
2021/01/03 10:45:34;;;;;;;8.57;5.53;;;;;;;;;;5055462;28;20465;-49
2021/01/03 10:48:00;;;;;;;8.23;5.85;;;;;;;;;;5070871;28;20207;-49
2021/01/03 10:50:26;;;;;;;7.47;5.10;;;;;;;;;;5071378;28;20270;-49
2021/01/03 10:52:54;;;;;;;6.70;5.10;;;;;;;;;;5071109;28;20254;-49
2021/01/03 10:55:21;;;;;;;6.13;5.53;;;;;;;;;;5071105;28;20164;-49
2021/01/03 10:57:47;;;;;;;7.18;5.50;;;;;;;;;;5071078;28;20549;-50
2021/01/03 11:00:14;;;;;;;10.13;6.47;;;;;;;;;;5071086;28;20162;-49
2021/01/03 11:02:40;;;;;;;5.75;4.57;;;;;;;;;;5070787;28;20419;-49
2021/01/03 11:05:07;;;;;;;11.43;7.40;;;;;;;;;;5071170;28;20619;-48
2021/01/03 11:07:34;;;;;;;6.13;4.47;;;;;;;;;;5070884;28;20463;-49
2021/01/03 11:10:00;;;;;;;7.45;5.30;;;;;;;;;;5071044;28;20190;-49
2021/01/03 11:12:26;;;;;;;5.78;4.97;;;;;;;;;;5070632;28;20178;-48
2021/01/03 11:14:52;;;;;;;6.47;5.57;;;;;;;;;;5071085;28;20223;-48
2021/01/03 11:17:18;;;;;;;5.77;5.20;;;;;;;;;;5067320;28;20456;-49
2021/01/03 11:19:44;;;;;;;5.70;4.60;;;;;;;;;;5071012;28;20407;-48
2021/01/03 11:22:12;;;;;;;5.65;4.70;;;;;;;;;;5070340;28;20505;-49
2021/01/03 11:24:38;;;;;;;9.93;4.93;;;;;;;;;;5070839;28;20621;-50
2021/01/03 11:27:05;;;;;;;8.32;5.63;;;;;;;;;;5069235;28;20180;-48
2021/01/03 11:29:31;;;;;;;8.20;6.35;;;;;;;;;;5064765;28;20360;-48
2021/01/03 11:31:59;;;;;;;6.13;5.10;;;;;;;;;;5050566;28;20258;-49
2021/01/03 11:34:27;;;;;;;8.80;6.72;;;;;;;;;;5050629;28;20886;-48
2021/01/03 11:37:12;;;;;;;6.65;5.50;;;;;;;;;;5050668;28;20193;-49
2021/01/03 11:39:38;;;;;;;6.82;6.13;;;;;;;;;;5050544;28;20177;-50
2021/01/03 11:42:08;;;;;;;6.93;5.15;;;;;;;;;;5050165;28;20196;-49
2021/01/03 11:44:34;;;;;;;9.15;5.50;;;;;;;;;;5050806;28;20178;-50
2021/01/03 11:47:01;;;;;;;9.63;5.17;;;;;;;;;;5057180;28;20225;-51
2021/01/03 11:49:27;;;;;;;6.25;5.63;;;;;;;;;;5070508;28;20495;-48
2021/01/03 11:51:53;;;;;;;8.20;5.63;;;;;;;;;;5070439;28;20173;-49
2021/01/03 11:54:19;;;;;;;7.30;6.50;;;;;;;;;;5070813;28;20260;-48
2021/01/03 11:56:46;;;;;;;7.47;5.80;;;;;;;;;;5070799;28;20194;-49
2021/01/03 11:59:12;;;;;;;7.55;5.40;;;;;;;;;;5073215;28;20208;-49
2021/01/03 12:01:38;;;;;;;10.10;5.17;;;;;;;;;;5074461;28;20225;-48
2021/01/03 12:04:04;;;;;;;6.75;6.10;;;;;;;;;;5074979;28;20620;-48
2021/01/03 12:06:30;;;;;;;8.55;6.85;;;;;;;;;;5074583;28;20589;-48
2021/01/03 12:08:56;;;;;;;7.60;6.00;;;;;;;;;;5074801;28;20245;-48
2021/01/03 12:11:23;;;;;;;8.50;6.27;;;;;;;;;;5074303;28;20415;-49
2021/01/03 12:13:50;;;;;;;6.82;5.50;;;;;;;;;;5074592;28;20414;-51
2021/01/03 12:16:17;;;;;;;6.50;5.80;;;;;;;;;;5073754;28;20200;-51
2021/01/03 12:18:43;;;;;;;8.15;5.60;;;;;;;;;;5071549;28;20211;-48
2021/01/03 12:21:09;;;;;;;7.60;6.63;;;;;;;;;;5073991;28;20599;-49
2021/01/03 12:23:35;;;;;;;7.90;5.70;;;;;;;;;;5074054;28;20407;-48
2021/01/03 12:26:01;;;;;;;7.83;6.53;;;;;;;;;;5074374;28;20408;-48
2021/01/03 12:28:27;;;;;;;8.10;6.15;;;;;;;;;;5073901;28;20431;-49
2021/01/03 12:30:53;;;;;;;9.23;7.30;;;;;;;;;;5074114;28;20172;-48
2021/01/03 12:33:18;;;;;;;7.80;6.23;;;;;;;;;;5073001;28;20398;-49
2021/01/03 12:35:44;;;;;;;9.63;6.97;;;;;;;;;;5072388;28;20400;-49
2021/01/03 12:38:10;;;;;;;7.67;6.87;;;;;;;;;;5073067;28;20422;-48
2021/01/03 12:40:36;;;;;;;8.40;6.33;;;;;;;;;;5072731;28;20453;-48
2021/01/03 12:43:02;;;;;;;8.60;6.43;;;;;;;;;;5073629;28;20889;-50
2021/01/03 12:45:28;;;;;;;9.40;6.87;;;;;;;;;;5073593;28;20431;-50
2021/01/03 12:47:54;;;;;;;8.23;6.40;;;;;;;;;;5072180;28;20882;-49
2021/01/03 12:50:22;;;;;;;10.70;7.03;;;;;;;;;;5073569;28;20407;-49
2021/01/03 12:52:48;;;;;;;8.27;6.88;;;;;;;;;;5073249;28;20902;-48
2021/01/03 12:55:14;;;;;;;10.60;7.60;;;;;;;;;;5073619;28;20173;-49
2021/01/03 12:57:40;;;;;;;8.18;6.95;;;;;;;;;;5073524;28;20502;-48
2021/01/03 13:00:07;;;;;;;9.10;7.40;;;;;;;;;;5073422;28;20257;-49
2021/01/03 13:02:33;;;;;;;11.02;8.02;;;;;;;;;;5073111;28;20458;-49
2021/01/03 13:04:59;;;;;;;11.03;7.80;;;;;;;;;;5051928;28;20190;-48
2021/01/03 13:07:25;;;;;;;10.73;8.10;;;;;;;;;;5053311;28;20424;-48
2021/01/03 13:09:51;;;;;;;11.23;8.25;;;;;;;;;;5052803;28;20180;-49
2021/01/03 13:12:17;;;;;;;12.47;8.33;;;;;;;;;;5053036;28;20166;-48
2021/01/03 13:14:43;;;;;;;13.48;8.80;;;;;;;;;;5053306;28;20428;-50
2021/01/03 13:17:09;;;;;;;13.02;8.82;;;;;;;;;;5060880;28;20197;-50
2021/01/03 13:19:35;;;;;;;10.93;7.73;;;;;;;;;;5073138;28;20178;-48
2021/01/03 13:22:01;;;;;;;12.23;7.50;;;;;;;;;;5072581;28;20456;-48
2021/01/03 13:24:27;;;;;;;12.13;8.00;;;;;;;;;;5072990;28;20402;-48
2021/01/03 13:26:53;;;;;;;12.10;9.23;;;;;;;;;;5072844;28;20461;-48
2021/01/03 13:29:20;;;;;;;12.23;8.10;;;;;;;;;;5053753;28;20432;-48
2021/01/03 13:31:46;;;;;;;12.18;9.23;;;;;;;;;;5052478;28;20418;-48
2021/01/03 13:34:12;;;;;;;10.17;7.90;;;;;;;;;;5052955;28;20254;-47
2021/01/03 13:36:42;;;;;;;16.42;9.55;;;;;;;;;;5059659;28;20452;-48
2021/01/03 13:39:08;;;;;;;13.38;8.93;;;;;;;;;;5072981;28;20621;-48
2021/01/03 13:41:34;;;;;;;11.30;8.25;;;;;;;;;;5068844;28;20262;-49
2021/01/03 13:43:59;;;;;;;11.23;8.10;;;;;;;;;;5072577;28;20180;-48
2021/01/03 13:46:25;;;;;;;13.07;8.63;;;;;;;;;;5072339;28;20409;-48
2021/01/03 13:48:51;;;;;;;13.23;8.50;;;;;;;;;;5072421;28;20440;-49
2021/01/03 13:51:17;;;;;;;11.30;8.63;;;;;;;;;;5072309;28;20497;-49
2021/01/03 13:53:43;;;;;;;13.33;8.80;;;;;;;;;;5072342;28;20412;-49
2021/01/03 13:56:09;;;;;;;14.13;8.63;;;;;;;;;;5072506;28;20408;-50
2021/01/03 13:58:35;;;;;;;10.33;8.07;;;;;;;;;;5072204;28;20421;-49
2021/01/03 14:01:05;;;;;;;13.50;9.15;;;;;;;;;;5072228;28;20845;-49
2021/01/03 14:03:31;;;;;;;14.15;8.75;;;;;;;;;;5072329;28;20659;-47
2021/01/03 14:05:57;;;;;;;12.83;7.60;;;;;;;;;;5071311;28;20180;-50
2021/01/03 14:08:23;;;;;;;14.90;9.50;;;;;;;;;;5070203;28;20529;-48
2021/01/03 14:10:49;;;;;;;19.40;9.03;;;;;;;;;;5072092;28;20404;-48
2021/01/03 14:13:15;;;;;;;18.38;8.40;;;;;;;;;;5072009;28;20416;-47
2021/01/03 14:15:41;;;;;;;14.05;8.32;;;;;;;;;;5072062;28;20267;-48
2021/01/03 14:18:07;;;;;;;16.05;8.32;;;;;;;;;;5072303;28;20185;-48
2021/01/03 14:20:33;;;;;;;12.65;7.82;;;;;;;;;;5071487;28;20238;-48
2021/01/03 14:22:59;;;;;;;13.60;8.73;;;;;;;;;;5071786;28;20172;-48
2021/01/03 14:25:26;;;;;;;13.70;8.97;;;;;;;;;;5072249;28;20217;-48
2021/01/03 14:27:53;;;;;;;12.48;8.35;;;;;;;;;;5071790;28;20422;-50
2021/01/03 14:30:20;;;;;;;11.00;8.32;;;;;;;;;;5071747;28;20169;-48
2021/01/03 14:32:49;;;;;;;12.05;8.20;;;;;;;;;;5071619;28;20168;-48
2021/01/03 14:35:15;;;;;;;10.23;7.75;;;;;;;;;;5071714;28;20181;-49
2021/01/03 14:37:42;;;;;;;10.32;7.72;;;;;;;;;;5068090;28;20207;-48